createdAt,value
2018-07-06T00:00:05.373Z,13.53
2018-07-06T00:01:05.378Z,13.52
2018-07-06T00:02:05.345Z,13.56
2018-07-06T00:03:05.338Z,13.49
2018-07-06T00:04:05.323Z,13.49
2018-07-06T00:05:05.313Z,13.46
2018-07-06T00:06:05.337Z,13.37
2018-07-06T00:07:05.296Z,13.37
2018-07-06T00:08:05.285Z,13.37
2018-07-06T00:09:05.272Z,13.30
2018-07-06T00:10:05.259Z,13.27
2018-07-06T00:11:05.342Z,13.23
2018-07-06T00:12:05.239Z,13.30
2018-07-06T00:13:05.228Z,13.25
2018-07-06T00:14:05.219Z,13.20
2018-07-06T00:15:05.210Z,13.28
2018-07-06T00:16:05.193Z,13.20
2018-07-06T00:17:05.187Z,13.09
2018-07-06T00:18:05.182Z,13.11
2018-07-06T00:19:05.167Z,13.15
2018-07-06T00:20:05.180Z,13.11
2018-07-06T00:21:05.146Z,12.97
2018-07-06T00:22:05.148Z,13.00
2018-07-06T00:23:05.122Z,12.91
2018-07-06T00:24:05.109Z,12.95
2018-07-06T00:25:05.098Z,12.97
2018-07-06T00:26:05.090Z,12.90
2018-07-06T00:27:05.108Z,12.98
2018-07-06T00:28:05.070Z,12.98
2018-07-06T00:29:05.057Z,12.87
2018-07-06T00:30:05.044Z,12.90
2018-07-06T00:31:05.031Z,12.97
2018-07-06T00:32:05.027Z,12.94
2018-07-06T00:33:05.017Z,12.95
2018-07-06T00:34:05.002Z,12.97
2018-07-06T00:35:04.988Z,12.94
2018-07-06T00:36:04.978Z,12.86
2018-07-06T00:37:04.996Z,12.82
2018-07-06T00:38:04.972Z,12.73
2018-07-06T00:39:04.957Z,12.82
2018-07-06T00:40:04.944Z,12.72
2018-07-06T00:41:04.928Z,12.75
2018-07-06T00:42:04.917Z,12.70
2018-07-06T00:43:04.908Z,12.82
2018-07-06T00:44:04.890Z,12.68
2018-07-06T00:45:04.888Z,12.67
2018-07-06T00:46:04.879Z,12.67
2018-07-06T00:47:04.866Z,12.70
2018-07-06T00:48:04.851Z,12.70
2018-07-06T00:49:04.840Z,12.68
2018-07-06T00:50:04.833Z,12.73
2018-07-06T00:51:04.825Z,12.68
2018-07-06T00:52:04.812Z,12.61
2018-07-06T00:53:04.838Z,12.57
2018-07-06T00:54:04.786Z,12.60
2018-07-06T00:55:04.776Z,12.61
2018-07-06T00:56:04.778Z,12.61
2018-07-06T00:57:04.754Z,12.54
2018-07-06T00:58:04.759Z,12.60
2018-07-06T00:59:04.741Z,12.65
2018-07-06T01:00:04.724Z,12.58
2018-07-06T01:01:04.719Z,12.49
2018-07-06T01:02:04.701Z,12.62
2018-07-06T01:03:04.701Z,12.58
2018-07-06T01:04:04.689Z,12.58
2018-07-06T01:05:04.669Z,12.46
2018-07-06T01:06:04.656Z,12.42
2018-07-06T01:07:04.650Z,12.47
2018-07-06T01:08:04.632Z,12.45
2018-07-06T01:09:04.625Z,12.42
2018-07-06T01:10:04.619Z,12.32
2018-07-06T01:11:04.607Z,12.39
2018-07-06T01:12:04.616Z,12.40
2018-07-06T01:13:04.581Z,12.28
2018-07-06T01:14:04.571Z,12.31
2018-07-06T01:15:04.555Z,12.31
2018-07-06T01:16:04.545Z,12.29
2018-07-06T01:17:04.539Z,12.32
2018-07-06T01:18:04.528Z,12.31
2018-07-06T01:19:04.522Z,12.29
2018-07-06T01:20:04.502Z,12.25
2018-07-06T01:21:04.493Z,12.28
2018-07-06T01:22:04.485Z,12.24
2018-07-06T01:23:04.478Z,12.20
2018-07-06T01:24:04.465Z,12.22
2018-07-06T01:25:04.459Z,12.18
2018-07-06T01:26:04.437Z,12.20
2018-07-06T01:27:04.429Z,12.13
2018-07-06T01:28:04.435Z,12.17
2018-07-06T01:29:04.428Z,12.21
2018-07-06T01:30:04.403Z,12.27
2018-07-06T01:31:04.388Z,12.31
2018-07-06T01:32:04.377Z,12.28
2018-07-06T01:33:04.369Z,12.32
2018-07-06T01:34:04.386Z,12.29
2018-07-06T01:35:04.341Z,12.43
2018-07-06T01:36:04.331Z,12.49
2018-07-06T01:37:04.323Z,12.46
2018-07-06T01:38:04.305Z,12.43
2018-07-06T01:39:04.299Z,12.57
2018-07-06T01:40:04.288Z,12.54
2018-07-06T01:41:04.273Z,12.50
2018-07-06T01:42:04.269Z,12.55
2018-07-06T01:43:04.254Z,12.57
2018-07-06T01:44:04.273Z,12.57
2018-07-06T01:45:04.236Z,12.45
2018-07-06T01:46:04.218Z,12.61
2018-07-06T01:47:04.210Z,12.54
2018-07-06T01:48:04.199Z,12.65
2018-07-06T01:49:04.193Z,12.68
2018-07-06T01:50:04.191Z,12.68
2018-07-06T01:51:04.168Z,12.65
2018-07-06T01:52:04.162Z,12.64
2018-07-06T01:53:04.141Z,12.65
2018-07-06T01:54:04.138Z,12.60
2018-07-06T01:55:04.126Z,12.43
2018-07-06T01:56:04.114Z,12.47
2018-07-06T01:57:04.105Z,12.49
2018-07-06T01:58:04.094Z,12.45
2018-07-06T01:59:04.079Z,12.40
2018-07-06T02:00:04.103Z,12.49
2018-07-06T02:01:04.054Z,12.49
2018-07-06T02:02:04.061Z,12.43
2018-07-06T02:03:04.039Z,12.42
2018-07-06T02:04:04.027Z,12.32
2018-07-06T02:05:04.058Z,12.27
2018-07-06T02:06:04.004Z,12.37
2018-07-06T02:07:03.992Z,12.22
2018-07-06T02:08:03.983Z,12.18
2018-07-06T02:09:03.977Z,12.25
2018-07-06T02:10:03.959Z,12.31
2018-07-06T02:11:03.951Z,12.36
2018-07-06T02:12:03.937Z,12.36
2018-07-06T02:13:03.926Z,12.39
2018-07-06T02:14:03.919Z,12.35
2018-07-06T02:15:03.912Z,12.37
2018-07-06T02:16:03.899Z,12.32
2018-07-06T02:17:03.895Z,12.29
2018-07-06T02:18:03.895Z,12.32
2018-07-06T02:19:03.860Z,12.24
2018-07-06T02:20:03.850Z,12.20
2018-07-06T02:21:03.856Z,12.17
2018-07-06T02:22:03.833Z,12.18
2018-07-06T02:23:03.821Z,12.12
2018-07-06T02:24:03.807Z,12.20
2018-07-06T02:25:03.794Z,12.24
2018-07-06T02:26:03.829Z,12.21
2018-07-06T02:27:03.776Z,12.20
2018-07-06T02:28:03.766Z,12.29
2018-07-06T02:29:03.759Z,12.18
2018-07-06T02:30:03.740Z,12.22
2018-07-06T02:31:03.736Z,12.29
2018-07-06T02:32:03.724Z,12.35
2018-07-06T02:33:03.710Z,12.40
2018-07-06T02:34:03.702Z,12.47
2018-07-06T02:35:03.690Z,12.50
2018-07-06T02:36:03.678Z,12.62
2018-07-06T02:37:03.684Z,12.62
2018-07-06T02:38:03.652Z,12.58
2018-07-06T02:39:03.643Z,12.50
2018-07-06T02:40:03.636Z,12.61
2018-07-06T02:41:03.627Z,12.55
2018-07-06T02:42:03.610Z,12.60
2018-07-06T02:43:03.600Z,12.60
2018-07-06T02:44:03.590Z,12.60
2018-07-06T02:45:03.620Z,12.47
2018-07-06T02:46:03.571Z,12.43
2018-07-06T02:47:03.579Z,12.47
2018-07-06T02:48:03.546Z,12.47
2018-07-06T02:49:03.571Z,12.45
2018-07-06T02:50:03.526Z,12.45
2018-07-06T02:51:03.520Z,12.45
2018-07-06T02:52:03.510Z,12.42
2018-07-06T02:53:03.494Z,12.39
2018-07-06T02:54:03.481Z,12.46
2018-07-06T02:55:03.471Z,12.47
2018-07-06T02:56:03.465Z,12.46
2018-07-06T02:57:03.484Z,12.54
2018-07-06T02:58:03.437Z,12.40
2018-07-06T02:59:03.427Z,12.29
2018-07-06T03:00:03.413Z,12.35
2018-07-06T03:01:03.404Z,12.32
2018-07-06T03:02:03.444Z,12.27
2018-07-06T03:03:03.436Z,12.22
2018-07-06T03:04:03.383Z,12.10
2018-07-06T03:05:03.377Z,12.06
2018-07-06T03:06:03.365Z,11.97
2018-07-06T03:07:03.339Z,11.86
2018-07-06T03:08:03.326Z,11.87
2018-07-06T03:09:03.317Z,11.88
2018-07-06T03:10:03.309Z,11.99
2018-07-06T03:11:03.299Z,12.03
2018-07-06T03:12:03.302Z,11.99
2018-07-06T03:13:03.274Z,12.00
2018-07-06T03:14:03.268Z,11.90
2018-07-06T03:15:03.274Z,11.99
2018-07-06T03:16:03.249Z,12.06
2018-07-06T03:17:03.270Z,12.02
2018-07-06T03:18:03.242Z,12.03
2018-07-06T03:19:03.211Z,11.91
2018-07-06T03:20:03.200Z,12.03
2018-07-06T03:21:03.187Z,11.95
2018-07-06T03:22:03.181Z,11.94
2018-07-06T03:23:03.172Z,11.94
2018-07-06T03:24:03.174Z,11.95
2018-07-06T03:25:03.146Z,11.90
2018-07-06T03:26:03.133Z,11.95
2018-07-06T03:27:03.126Z,11.90
2018-07-06T03:28:03.137Z,11.90
2018-07-06T03:29:03.105Z,11.84
2018-07-06T03:30:03.091Z,11.78
2018-07-06T03:31:03.076Z,11.73
2018-07-06T03:32:03.065Z,11.84
2018-07-06T03:33:03.059Z,11.86
2018-07-06T03:34:03.048Z,11.95
2018-07-06T03:35:03.040Z,11.90
2018-07-06T03:36:03.057Z,12.03
2018-07-06T03:37:03.023Z,12.00
2018-07-06T03:38:03.030Z,11.97
2018-07-06T03:39:02.991Z,11.86
2018-07-06T03:40:02.977Z,11.86
2018-07-06T03:41:02.976Z,11.88
2018-07-06T03:42:02.984Z,11.87
2018-07-06T03:43:02.951Z,11.86
2018-07-06T03:44:02.935Z,11.87
2018-07-06T03:45:02.926Z,11.73
2018-07-06T03:46:02.916Z,11.78
2018-07-06T03:47:02.907Z,11.83
2018-07-06T03:48:02.934Z,11.87
2018-07-06T03:49:02.887Z,11.73
2018-07-06T03:50:02.872Z,11.81
2018-07-06T03:51:02.875Z,11.72
2018-07-06T03:52:02.851Z,11.73
2018-07-06T03:53:02.841Z,11.84
2018-07-06T03:54:02.855Z,11.86
2018-07-06T03:55:02.896Z,11.88
2018-07-06T03:56:02.812Z,11.86
2018-07-06T03:57:02.796Z,11.97
2018-07-06T03:58:02.783Z,11.95
2018-07-06T03:59:02.788Z,12.02
2018-07-06T04:00:02.823Z,12.09
2018-07-06T04:01:02.762Z,12.21
2018-07-06T04:02:02.740Z,12.21
2018-07-06T04:03:02.726Z,12.29
2018-07-06T04:04:02.715Z,12.36
2018-07-06T04:05:02.735Z,12.43
2018-07-06T04:06:02.705Z,12.57
2018-07-06T04:07:02.709Z,12.57
2018-07-06T04:08:02.679Z,12.70
2018-07-06T04:09:02.665Z,12.72
2018-07-06T04:10:02.675Z,12.87
2018-07-06T04:11:02.646Z,12.83
2018-07-06T04:12:02.643Z,12.91
2018-07-06T04:13:02.639Z,13.03
2018-07-06T04:14:02.625Z,13.08
2018-07-06T04:15:02.631Z,13.11
2018-07-06T04:16:02.635Z,13.15
2018-07-06T04:17:02.578Z,13.27
2018-07-06T04:18:02.568Z,13.31
2018-07-06T04:19:02.560Z,13.38
2018-07-06T04:20:02.550Z,13.49
2018-07-06T04:21:02.584Z,13.46
2018-07-06T04:22:02.524Z,13.56
2018-07-06T04:23:02.512Z,13.68
2018-07-06T04:24:02.500Z,13.68
2018-07-06T04:25:02.490Z,13.68
2018-07-06T04:26:02.484Z,13.77
2018-07-06T04:27:02.473Z,13.74
2018-07-06T04:28:02.462Z,13.79
2018-07-06T04:29:02.449Z,13.89
2018-07-06T04:30:02.437Z,13.99
2018-07-06T04:31:02.424Z,13.92
2018-07-06T04:32:02.422Z,13.93
2018-07-06T04:33:02.411Z,14.03
2018-07-06T04:34:02.402Z,14.03
2018-07-06T04:35:02.380Z,13.92
2018-07-06T04:36:02.371Z,14.10
2018-07-06T04:37:02.361Z,14.14
2018-07-06T04:38:02.352Z,14.11
2018-07-06T04:39:02.343Z,14.18
2018-07-06T04:40:02.333Z,14.23
2018-07-06T04:41:02.343Z,14.25
2018-07-06T04:42:02.306Z,14.22
2018-07-06T04:43:02.323Z,14.23
2018-07-06T04:44:02.282Z,14.23
2018-07-06T04:45:02.274Z,14.36
2018-07-06T04:46:02.291Z,14.35
2018-07-06T04:47:02.263Z,14.37
2018-07-06T04:48:02.239Z,14.36
2018-07-06T04:49:02.232Z,14.43
2018-07-06T04:50:02.223Z,14.41
2018-07-06T04:51:02.256Z,14.44
2018-07-06T04:52:02.207Z,14.53
2018-07-06T04:53:02.203Z,14.54
2018-07-06T04:54:02.183Z,14.65
2018-07-06T04:55:02.183Z,14.54
2018-07-06T04:56:02.172Z,14.58
2018-07-06T04:57:02.147Z,14.55
2018-07-06T04:58:02.158Z,14.69
2018-07-06T04:59:02.135Z,14.72
2018-07-06T05:00:02.137Z,14.63
2018-07-06T05:01:02.123Z,14.69
2018-07-06T05:02:02.101Z,14.62
2018-07-06T05:03:02.083Z,14.66
2018-07-06T05:04:02.076Z,14.77
2018-07-06T05:05:02.064Z,14.78
2018-07-06T05:06:02.086Z,14.77
2018-07-06T05:07:02.034Z,14.73
2018-07-06T05:08:02.035Z,14.77
2018-07-06T05:09:02.017Z,14.82
2018-07-06T05:10:02.007Z,14.84
2018-07-06T05:11:01.998Z,14.89
2018-07-06T05:12:01.989Z,14.88
2018-07-06T05:13:01.973Z,14.86
2018-07-06T05:14:01.962Z,14.99
2018-07-06T05:15:01.948Z,15.02
2018-07-06T05:16:01.944Z,14.94
2018-07-06T05:17:02.022Z,15.07
2018-07-06T05:18:01.930Z,15.07
2018-07-06T05:19:01.932Z,15.15
2018-07-06T05:20:01.894Z,15.17
2018-07-06T05:21:01.895Z,15.14
2018-07-06T05:22:01.906Z,15.27
2018-07-06T05:23:01.868Z,15.25
2018-07-06T05:24:01.859Z,15.24
2018-07-06T05:25:01.855Z,15.33
2018-07-06T05:26:01.831Z,15.37
2018-07-06T05:27:01.818Z,15.36
2018-07-06T05:28:01.809Z,15.33
2018-07-06T05:29:01.800Z,15.46
2018-07-06T05:30:01.790Z,15.47
2018-07-06T05:31:01.785Z,15.42
2018-07-06T05:32:01.809Z,15.54
2018-07-06T05:33:01.760Z,15.49
2018-07-06T05:34:01.761Z,15.52
2018-07-06T05:35:01.759Z,15.49
2018-07-06T05:36:01.728Z,15.55
2018-07-06T05:37:01.715Z,15.51
2018-07-06T05:38:01.730Z,15.46
2018-07-06T05:39:01.688Z,15.51
2018-07-06T05:40:01.677Z,15.62
2018-07-06T05:41:01.671Z,15.61
2018-07-06T05:42:01.677Z,15.59
2018-07-06T05:43:01.687Z,15.57
2018-07-06T05:44:01.649Z,15.59
2018-07-06T05:45:01.629Z,15.65
2018-07-06T05:46:01.635Z,15.67
2018-07-06T05:47:01.603Z,15.70
2018-07-06T05:48:01.669Z,15.72
2018-07-06T05:49:01.587Z,15.68
2018-07-06T05:50:01.577Z,15.68
2018-07-06T05:51:01.566Z,15.73
2018-07-06T05:52:01.548Z,15.70
2018-07-06T05:53:01.541Z,15.73
2018-07-06T05:54:01.563Z,15.67
2018-07-06T05:55:01.526Z,15.73
2018-07-06T05:56:01.513Z,15.64
2018-07-06T05:57:01.500Z,15.55
2018-07-06T05:58:01.490Z,15.61
2018-07-06T05:59:01.474Z,15.64
2018-07-06T06:00:01.466Z,15.73
2018-07-06T06:01:01.457Z,15.68
2018-07-06T06:02:01.447Z,15.68
2018-07-06T06:03:01.517Z,15.68
2018-07-06T06:04:01.429Z,15.72
2018-07-06T06:05:01.418Z,15.68
2018-07-06T06:06:01.421Z,15.76
2018-07-06T06:07:01.390Z,15.70
2018-07-06T06:08:01.386Z,15.72
2018-07-06T06:09:01.375Z,15.67
2018-07-06T06:10:01.388Z,15.68
2018-07-06T06:11:01.347Z,15.70
2018-07-06T06:12:01.341Z,15.70
2018-07-06T06:13:01.333Z,15.76
2018-07-06T06:14:01.325Z,15.72
2018-07-06T06:15:01.315Z,15.73
2018-07-06T06:16:01.309Z,15.72
2018-07-06T06:17:01.287Z,15.73
2018-07-06T06:18:01.281Z,15.70
2018-07-06T06:19:01.265Z,15.72
2018-07-06T06:20:01.253Z,15.70
2018-07-06T06:21:01.252Z,15.72
2018-07-06T06:22:01.236Z,15.88
2018-07-06T06:23:01.224Z,15.98
2018-07-06T06:24:01.211Z,16.02
2018-07-06T06:25:01.198Z,16.10
2018-07-06T06:26:01.222Z,16.10
2018-07-06T06:27:01.180Z,16.08
2018-07-06T06:28:01.175Z,16.13
2018-07-06T06:29:01.156Z,16.13
2018-07-06T06:30:01.149Z,16.24
2018-07-06T06:31:01.135Z,16.21
2018-07-06T06:32:01.146Z,16.20
2018-07-06T06:33:01.152Z,16.32
2018-07-06T06:34:01.289Z,16.33
2018-07-06T06:35:01.115Z,16.29
2018-07-06T06:36:01.085Z,16.17
2018-07-06T06:37:01.071Z,16.26
2018-07-06T06:38:01.056Z,16.31
2018-07-06T06:39:01.041Z,16.38
2018-07-06T06:40:01.040Z,16.41
2018-07-06T06:41:01.036Z,16.43
2018-07-06T06:42:01.034Z,16.41
2018-07-06T06:43:00.997Z,16.38
2018-07-06T06:44:00.987Z,16.38
2018-07-06T06:45:00.985Z,16.29
2018-07-06T06:46:00.979Z,16.39
2018-07-06T06:47:00.990Z,16.38
2018-07-06T06:48:00.950Z,16.33
2018-07-06T06:49:00.955Z,16.26
2018-07-06T06:50:00.924Z,16.33
2018-07-06T06:51:00.911Z,16.38
2018-07-06T06:52:00.901Z,16.28
2018-07-06T06:53:00.897Z,16.38
2018-07-06T06:54:00.883Z,16.41
2018-07-06T06:55:00.874Z,16.39
2018-07-06T06:56:00.856Z,16.49
2018-07-06T06:57:00.849Z,16.57
2018-07-06T06:58:00.842Z,16.64
2018-07-06T06:59:00.880Z,16.68
2018-07-06T07:00:00.819Z,16.68
2018-07-06T07:01:00.809Z,16.79
2018-07-06T07:02:00.794Z,16.87
2018-07-06T07:03:00.807Z,16.86
2018-07-06T07:04:00.769Z,17.01
2018-07-06T07:05:00.762Z,16.93
2018-07-06T07:06:00.753Z,17.04
2018-07-06T07:07:00.739Z,16.96
2018-07-06T07:08:00.729Z,17.02
2018-07-06T07:09:00.766Z,17.02
2018-07-06T07:10:00.707Z,16.99
2018-07-06T07:11:00.694Z,16.99
2018-07-06T07:12:00.686Z,17.01
2018-07-06T07:13:00.681Z,17.04
2018-07-06T07:14:00.774Z,17.04
2018-07-06T07:15:00.657Z,16.94
2018-07-06T07:16:00.637Z,17.06
2018-07-06T07:17:00.644Z,17.04
2018-07-06T07:18:00.641Z,17.06
2018-07-06T07:19:00.611Z,17.01
2018-07-06T07:20:00.598Z,17.11
2018-07-06T07:21:00.594Z,17.11
2018-07-06T07:22:00.575Z,17.09
2018-07-06T07:23:00.563Z,17.12
2018-07-06T07:24:00.554Z,17.16
2018-07-06T07:25:00.541Z,17.38
2018-07-06T07:26:00.536Z,17.39
2018-07-06T07:27:00.525Z,17.46
2018-07-06T07:28:00.512Z,17.51
2018-07-06T07:29:00.498Z,17.57
2018-07-06T07:30:00.510Z,17.68
2018-07-06T07:31:00.479Z,17.86
2018-07-06T07:32:00.477Z,17.95
2018-07-06T07:33:00.461Z,17.98
2018-07-06T07:34:00.470Z,18.11
2018-07-06T07:35:00.434Z,18.13
2018-07-06T07:36:00.423Z,18.16
2018-07-06T07:37:00.411Z,18.05
2018-07-06T07:38:00.407Z,18.22
2018-07-06T07:39:00.419Z,18.22
2018-07-06T07:40:00.385Z,18.08
2018-07-06T07:41:00.375Z,18.23
2018-07-06T07:42:00.358Z,18.23
2018-07-06T07:43:00.351Z,18.22
2018-07-06T07:44:00.341Z,18.40
2018-07-06T07:45:00.378Z,18.40
2018-07-06T07:46:00.327Z,18.34
2018-07-06T07:47:00.313Z,18.50
2018-07-06T07:48:00.295Z,18.62
2018-07-06T07:49:00.282Z,18.66
2018-07-06T07:50:00.279Z,18.74
2018-07-06T07:51:00.299Z,18.63
2018-07-06T07:52:00.274Z,18.62
2018-07-06T07:53:00.246Z,18.62
2018-07-06T07:54:00.235Z,18.60
2018-07-06T07:55:00.282Z,18.66
2018-07-06T07:56:00.221Z,18.63
2018-07-06T07:57:00.196Z,18.77
2018-07-06T07:58:00.192Z,18.71
2018-07-06T07:59:00.178Z,18.58
2018-07-06T08:00:00.166Z,18.53
2018-07-06T08:01:00.345Z,18.63
2018-07-06T08:02:00.160Z,18.63
2018-07-06T08:03:00.136Z,18.63
2018-07-06T08:04:00.126Z,18.65
2018-07-06T08:05:00.127Z,18.75
2018-07-06T08:06:00.128Z,18.68
2018-07-06T08:07:00.090Z,18.71
2018-07-06T08:08:00.080Z,18.77
2018-07-06T08:09:00.067Z,18.63
2018-07-06T08:10:00.064Z,18.70
2018-07-06T08:11:00.050Z,18.60
2018-07-06T08:12:00.042Z,18.58
2018-07-06T08:13:00.039Z,18.66
2018-07-06T08:14:04.909Z,18.75
2018-07-06T08:15:00.016Z,18.71
2018-07-06T08:15:59.995Z,18.77
2018-07-06T08:17:00.017Z,18.58
2018-07-06T08:17:59.969Z,18.68
2018-07-06T08:18:59.961Z,18.60
2018-07-06T08:19:59.949Z,18.65
2018-07-06T08:20:59.940Z,18.77
2018-07-06T08:21:59.932Z,18.74
2018-07-06T08:22:59.922Z,18.84
2018-07-06T08:23:59.908Z,18.88
2018-07-06T08:24:59.901Z,18.81
2018-07-06T08:25:59.882Z,18.93
2018-07-06T08:26:59.875Z,18.93
2018-07-06T08:27:59.869Z,19.11
2018-07-06T08:28:59.854Z,19.09
2018-07-06T08:29:59.849Z,19.15
2018-07-06T08:30:59.833Z,19.18
2018-07-06T08:31:59.822Z,19.14
2018-07-06T08:32:59.808Z,19.24
2018-07-06T08:33:59.803Z,19.15
2018-07-06T08:34:59.807Z,19.18
2018-07-06T08:35:59.781Z,19.15
2018-07-06T08:36:59.771Z,19.12
2018-07-06T08:37:59.775Z,19.16
2018-07-06T08:38:59.746Z,19.33
2018-07-06T08:39:59.751Z,19.47
2018-07-06T08:40:59.745Z,19.55
2018-07-06T08:41:59.727Z,19.63
2018-07-06T08:42:59.731Z,19.73
2018-07-06T08:43:59.695Z,19.89
2018-07-06T08:44:59.776Z,19.94
2018-07-06T08:45:59.667Z,19.94
2018-07-06T08:46:59.659Z,20.04
2018-07-06T08:47:59.651Z,20.26
2018-07-06T08:48:59.648Z,20.47
2018-07-06T08:49:59.627Z,20.56
2018-07-06T08:50:59.623Z,20.59
2018-07-06T08:51:59.637Z,20.74
2018-07-06T08:52:59.593Z,20.77
2018-07-06T08:53:59.594Z,20.97
2018-07-06T08:54:59.583Z,20.96
2018-07-06T08:55:59.587Z,21.14
2018-07-06T08:56:59.556Z,21.21
2018-07-06T08:57:59.537Z,21.12
2018-07-06T08:58:59.569Z,20.99
2018-07-06T08:59:59.524Z,21.06
2018-07-06T09:00:59.543Z,21.18
2018-07-06T09:01:59.503Z,21.35
2018-07-06T09:02:59.489Z,21.55
2018-07-06T09:03:59.513Z,21.42
2018-07-06T09:04:59.464Z,21.36
2018-07-06T09:05:59.461Z,21.40
2018-07-06T09:06:59.447Z,21.40
2018-07-06T09:07:59.445Z,21.32
2018-07-06T09:08:59.474Z,21.30
2018-07-06T09:09:59.441Z,21.37
2018-07-06T09:10:59.404Z,21.32
2018-07-06T09:11:59.396Z,21.37
2018-07-06T09:12:59.394Z,21.45
2018-07-06T09:13:59.378Z,21.62
2018-07-06T09:14:59.392Z,21.88
2018-07-06T09:15:59.369Z,22.96
2018-07-06T09:16:59.344Z,23.80
2018-07-06T09:17:59.331Z,24.38
2018-07-06T09:18:59.319Z,24.21
2018-07-06T09:19:59.601Z,23.88
2018-07-06T09:20:59.307Z,23.69
2018-07-06T09:21:59.287Z,23.25
2018-07-06T09:22:59.276Z,22.81
2018-07-06T09:23:59.268Z,22.66
2018-07-06T09:24:59.256Z,22.55
2018-07-06T09:25:59.543Z,22.57
2018-07-06T09:26:59.238Z,22.51
2018-07-06T09:27:59.227Z,22.53
2018-07-06T09:28:59.220Z,22.32
2018-07-06T09:29:59.219Z,22.26
2018-07-06T09:30:59.193Z,22.08
2018-07-06T09:31:59.184Z,21.95
2018-07-06T09:32:59.170Z,21.83
2018-07-06T09:33:59.169Z,22.75
2018-07-06T09:34:59.195Z,23.43
2018-07-06T09:35:59.152Z,24.02
2018-07-06T09:36:59.129Z,24.42
2018-07-06T09:37:59.130Z,24.61
2018-07-06T09:38:59.130Z,24.69
2018-07-06T09:39:59.127Z,24.89
2018-07-06T09:40:59.135Z,25.01
2018-07-06T09:41:59.096Z,25.25
2018-07-06T09:42:59.073Z,25.51
2018-07-06T09:43:59.064Z,25.55
2018-07-06T09:44:59.048Z,25.70
2018-07-06T09:45:59.063Z,25.98
2018-07-06T09:46:59.034Z,26.26
2018-07-06T09:47:59.026Z,26.47
2018-07-06T09:48:59.015Z,26.73
2018-07-06T09:49:58.997Z,26.89
2018-07-06T09:50:59.043Z,27.25
2018-07-06T09:51:58.987Z,26.84
2018-07-06T09:52:58.972Z,26.89
2018-07-06T09:53:58.955Z,27.12
2018-07-06T09:54:58.948Z,26.70
2018-07-06T09:55:58.974Z,26.06
2018-07-06T09:56:58.926Z,26.05
2018-07-06T09:57:58.925Z,26.34
2018-07-06T09:58:58.909Z,25.84
2018-07-06T09:59:58.898Z,25.68
2018-07-06T10:00:58.910Z,25.60
2018-07-06T10:01:58.921Z,25.41
2018-07-06T10:02:58.897Z,25.08
2018-07-06T10:03:58.859Z,24.74
2018-07-06T10:04:58.844Z,24.73
2018-07-06T10:05:58.869Z,24.84
2018-07-06T10:06:58.824Z,24.77
2018-07-06T10:07:58.820Z,24.53
2018-07-06T10:08:58.817Z,24.29
2018-07-06T10:09:58.800Z,24.23
2018-07-06T10:10:58.796Z,24.32
2018-07-06T10:11:58.778Z,24.36
2018-07-06T10:12:58.763Z,24.61
2018-07-06T10:13:58.752Z,24.60
2018-07-06T10:14:58.738Z,24.38
2018-07-06T10:15:58.800Z,24.23
2018-07-06T10:16:58.716Z,24.17
2018-07-06T10:17:58.713Z,24.23
2018-07-06T10:18:58.699Z,24.02
2018-07-06T10:19:58.697Z,23.73
2018-07-06T10:20:58.682Z,23.65
2018-07-06T10:21:58.753Z,23.74
2018-07-06T10:22:58.655Z,23.92
2018-07-06T10:23:58.644Z,23.86
2018-07-06T10:24:58.636Z,23.78
2018-07-06T10:25:58.620Z,23.92
2018-07-06T10:26:58.622Z,23.92
2018-07-06T10:27:58.625Z,23.95
2018-07-06T10:28:58.587Z,23.81
2018-07-06T10:29:58.584Z,23.92
2018-07-06T10:30:58.585Z,23.92
2018-07-06T10:31:58.575Z,23.99
2018-07-06T10:32:58.590Z,23.92
2018-07-06T10:33:58.581Z,23.95
2018-07-06T10:34:58.531Z,24.05
2018-07-06T10:35:58.526Z,24.11
2018-07-06T10:36:58.521Z,24.23
2018-07-06T10:37:58.503Z,24.11
2018-07-06T10:38:58.486Z,24.10
2018-07-06T10:39:58.509Z,24.28
2018-07-06T10:40:58.462Z,24.39
2018-07-06T10:41:58.491Z,24.55
2018-07-06T10:42:58.452Z,24.70
2018-07-06T10:43:58.438Z,24.93
2018-07-06T10:44:58.441Z,25.13
2018-07-06T10:45:58.425Z,25.48
2018-07-06T10:46:58.410Z,25.48
2018-07-06T10:47:58.409Z,25.65
2018-07-06T10:48:58.391Z,25.44
2018-07-06T10:49:58.382Z,25.48
2018-07-06T10:50:58.368Z,25.93
2018-07-06T10:51:58.360Z,26.18
2018-07-06T10:52:58.355Z,26.44
2018-07-06T10:53:58.333Z,26.85
2018-07-06T10:54:58.329Z,27.51
2018-07-06T10:55:58.320Z,28.00
2018-07-06T10:56:58.309Z,27.78
2018-07-06T10:57:58.297Z,27.51
2018-07-06T10:58:58.292Z,26.85
2018-07-06T10:59:58.279Z,26.21
2018-07-06T11:00:58.268Z,25.53
2018-07-06T11:01:58.260Z,25.81
2018-07-06T11:02:58.279Z,25.80
2018-07-06T11:03:58.236Z,25.93
2018-07-06T11:04:58.250Z,25.93
2018-07-06T11:05:58.211Z,25.91
2018-07-06T11:06:58.202Z,25.88
2018-07-06T11:07:58.195Z,25.87
2018-07-06T11:08:58.229Z,25.80
2018-07-06T11:09:58.176Z,25.66
2018-07-06T11:10:58.163Z,25.60
2018-07-06T11:11:58.150Z,25.72
2018-07-06T11:12:58.138Z,25.35
2018-07-06T11:13:58.138Z,25.33
2018-07-06T11:14:58.121Z,25.48
2018-07-06T11:15:58.112Z,25.66
2018-07-06T11:16:58.105Z,25.65
2018-07-06T11:17:58.109Z,25.43
2018-07-06T11:18:58.087Z,25.33
2018-07-06T11:19:58.071Z,25.32
2018-07-06T11:20:58.064Z,25.29
2018-07-06T11:21:58.050Z,25.40
2018-07-06T11:22:58.041Z,25.77
2018-07-06T11:23:58.033Z,26.22
2018-07-06T11:24:58.023Z,26.53
2018-07-06T11:25:58.017Z,27.10
2018-07-06T11:26:58.006Z,27.48
2018-07-06T11:27:57.997Z,28.04
2018-07-06T11:28:57.992Z,28.69
2018-07-06T11:29:57.979Z,29.47
2018-07-06T11:30:57.973Z,29.41
2018-07-06T11:31:57.972Z,28.41
2018-07-06T11:32:57.950Z,27.86
2018-07-06T11:33:57.952Z,27.48
2018-07-06T11:34:57.926Z,27.00
2018-07-06T11:35:57.919Z,27.54
2018-07-06T11:36:57.909Z,28.57
2018-07-06T11:37:57.973Z,28.98
2018-07-06T11:38:57.913Z,28.14
2018-07-06T11:39:57.882Z,28.60
2018-07-06T11:40:57.876Z,29.36
2018-07-06T11:41:57.860Z,29.88
2018-07-06T11:42:57.854Z,30.05
2018-07-06T11:43:57.878Z,30.83
2018-07-06T11:44:57.959Z,29.84
2018-07-06T11:45:57.828Z,29.13
2018-07-06T11:46:57.819Z,29.47
2018-07-06T11:47:57.808Z,30.69
2018-07-06T11:48:57.796Z,31.73
2018-07-06T11:49:57.796Z,32.36
2018-07-06T11:50:57.793Z,32.29
2018-07-06T11:51:57.773Z,30.63
2018-07-06T11:52:57.766Z,29.69
2018-07-06T11:53:57.751Z,29.42
2018-07-06T11:54:57.750Z,29.71
2018-07-06T11:55:57.739Z,29.84
2018-07-06T11:56:57.727Z,31.18
2018-07-06T11:57:57.724Z,31.58
2018-07-06T11:58:57.717Z,31.94
2018-07-06T11:59:57.728Z,30.83
2018-07-06T12:00:57.689Z,30.12
2018-07-06T12:01:57.688Z,29.66
2018-07-06T12:02:57.676Z,30.05
2018-07-06T12:03:57.694Z,29.54
2018-07-06T12:04:57.677Z,28.96
2018-07-06T12:05:57.642Z,28.39
2018-07-06T12:06:57.639Z,28.11
2018-07-06T12:07:57.653Z,27.86
2018-07-06T12:08:57.626Z,27.73
2018-07-06T12:09:57.614Z,27.35
2018-07-06T12:10:57.600Z,26.85
2018-07-06T12:11:57.589Z,26.59
2018-07-06T12:12:57.580Z,27.98
2018-07-06T12:13:57.565Z,28.84
2018-07-06T12:14:57.559Z,29.61
2018-07-06T12:15:57.551Z,30.50
2018-07-06T12:16:57.549Z,31.51
2018-07-06T12:17:57.528Z,32.67
2018-07-06T12:18:57.519Z,33.08
2018-07-06T12:19:57.541Z,34.01
2018-07-06T12:20:57.557Z,33.62
2018-07-06T12:21:57.500Z,32.18
2018-07-06T12:22:57.487Z,30.99
2018-07-06T12:23:57.479Z,29.75
2018-07-06T12:24:57.471Z,29.07
2018-07-06T12:25:57.458Z,28.60
2018-07-06T12:26:57.446Z,28.27
2018-07-06T12:27:57.480Z,28.27
2018-07-06T12:28:57.431Z,28.39
2018-07-06T12:29:57.422Z,28.57
2018-07-06T12:30:57.412Z,28.10
2018-07-06T12:31:57.420Z,27.55
2018-07-06T12:32:57.386Z,27.36
2018-07-06T12:33:57.411Z,27.10
2018-07-06T12:34:57.370Z,27.75
2018-07-06T12:35:57.379Z,29.59
2018-07-06T12:36:57.366Z,30.80
2018-07-06T12:37:57.340Z,31.73
2018-07-06T12:38:57.333Z,32.77
2018-07-06T12:39:57.322Z,33.68
2018-07-06T12:40:57.333Z,34.54
2018-07-06T12:41:57.310Z,35.27
2018-07-06T12:42:57.296Z,35.66
2018-07-06T12:43:57.289Z,34.99
2018-07-06T12:44:57.313Z,35.08
2018-07-06T12:45:57.321Z,35.63
2018-07-06T12:46:57.260Z,34.93
2018-07-06T12:47:57.265Z,33.07
2018-07-06T12:48:57.247Z,31.96
2018-07-06T12:49:57.231Z,30.75
2018-07-06T12:50:57.226Z,29.91
2018-07-06T12:51:57.216Z,29.19